createdAt,value
2023-02-12T00:03:07.089Z,5.27
2023-02-12T00:08:25.637Z,5.27
2023-02-12T00:13:34.395Z,5.25
2023-02-12T00:18:40.017Z,5.24
2023-02-12T00:23:51.157Z,5.22
2023-02-12T00:28:59.338Z,5.21
2023-02-12T00:34:07.370Z,5.20
2023-02-12T00:39:19.179Z,5.18
2023-02-12T00:44:28.526Z,5.17
2023-02-12T00:49:40.847Z,5.16
2023-02-12T00:54:46.721Z,5.12
2023-02-12T00:59:54.949Z,5.12
2023-02-12T01:05:02.755Z,5.13
2023-02-12T01:10:17.493Z,5.11
2023-02-12T01:15:24.236Z,5.12
2023-02-12T01:20:36.252Z,5.13
2023-02-12T01:25:48.331Z,5.17
2023-02-12T01:30:56.182Z,5.18
2023-02-12T01:36:08.312Z,5.18
2023-02-12T01:41:21.246Z,5.18
2023-02-12T01:46:29.020Z,5.19
2023-02-12T01:51:42.896Z,5.24
2023-02-12T01:56:51.794Z,5.28
2023-02-12T02:02:00.538Z,5.28
2023-02-12T02:07:14.556Z,5.28
2023-02-12T02:12:42.864Z,5.27
2023-02-12T02:18:15.286Z,5.25
2023-02-12T02:23:55.338Z,5.23
2023-02-12T02:29:50.221Z,5.27
2023-02-12T02:35:10.781Z,5.38
2023-02-12T02:40:39.390Z,5.48
2023-02-12T02:45:51.720Z,5.54
2023-02-12T02:51:09.349Z,5.60
2023-02-12T02:56:24.802Z,5.63
2023-02-12T03:01:53.094Z,5.64
2023-02-12T03:07:22.122Z,5.62
2023-02-12T03:12:51.972Z,5.59
2023-02-12T03:18:04.741Z,5.58
2023-02-12T03:23:17.137Z,5.55
2023-02-12T03:28:27.879Z,5.52
2023-02-12T03:33:55.561Z,5.49
2023-02-12T03:39:18.882Z,5.45
2023-02-12T03:45:03.524Z,5.43
2023-02-12T03:50:21.537Z,5.41
2023-02-12T03:55:28.177Z,5.40
2023-02-12T04:00:54.190Z,5.38
2023-02-12T04:06:06.303Z,5.35
2023-02-12T04:11:33.573Z,5.32
2023-02-12T04:16:46.668Z,5.32
2023-02-12T04:22:04.717Z,5.32
2023-02-12T04:27:41.118Z,5.30
2023-02-12T04:33:04.743Z,5.30
2023-02-12T04:38:23.081Z,5.27
2023-02-12T04:43:40.101Z,5.24
2023-02-12T04:48:57.608Z,5.23
2023-02-12T04:54:11.366Z,5.21
2023-02-12T04:59:15.337Z,5.20
2023-02-12T05:04:19.484Z,5.19
2023-02-12T05:09:22.930Z,5.18
2023-02-12T05:14:26.415Z,5.18
2023-02-12T05:19:30.029Z,5.15
2023-02-12T05:24:33.630Z,5.14
2023-02-12T05:29:37.906Z,5.16
2023-02-12T05:34:41.440Z,5.14
2023-02-12T05:39:45.187Z,5.13
2023-02-12T05:44:48.679Z,5.11
2023-02-12T05:49:52.188Z,5.10
2023-02-12T05:54:55.639Z,5.10
2023-02-12T05:59:59.248Z,5.07
2023-02-12T06:05:03.027Z,5.04
2023-02-12T06:10:09.149Z,5.03
2023-02-12T06:15:12.710Z,5.03
2023-02-12T06:20:16.833Z,5.03
2023-02-12T06:25:21.012Z,5.02
2023-02-12T06:30:24.912Z,5.01
2023-02-12T06:35:28.428Z,5.03
2023-02-12T06:40:32.070Z,5.04
2023-02-12T06:45:35.877Z,5.06
2023-02-12T06:50:39.294Z,5.07
2023-02-12T06:55:42.708Z,5.08
2023-02-12T07:00:46.220Z,5.09
2023-02-12T07:05:49.657Z,5.12
2023-02-12T07:10:53.123Z,5.14
2023-02-12T07:15:56.994Z,5.18
2023-02-12T07:21:00.890Z,5.22
2023-02-12T07:26:06.571Z,5.27
2023-02-12T07:31:11.975Z,5.28
2023-02-12T07:36:17.192Z,5.31
2023-02-12T07:41:22.690Z,5.36
2023-02-12T07:46:29.468Z,5.42
2023-02-12T07:51:35.080Z,5.49
2023-02-12T07:56:40.163Z,5.57
2023-02-12T08:01:45.890Z,5.64
2023-02-12T08:06:51.475Z,5.70
2023-02-12T08:11:55.255Z,5.75
2023-02-12T08:16:58.754Z,5.77
2023-02-12T08:22:02.560Z,5.81
2023-02-12T08:27:06.283Z,5.86
2023-02-12T08:32:13.386Z,5.88
2023-02-12T08:37:17.092Z,5.90
2023-02-12T08:42:20.591Z,5.93
2023-02-12T08:47:24.057Z,5.94
2023-02-12T08:52:27.636Z,5.98
2023-02-12T08:57:31.128Z,6.03
2023-02-12T09:02:34.651Z,6.05
2023-02-12T09:07:38.580Z,6.08
2023-02-12T09:12:42.029Z,6.12
2023-02-12T09:17:45.638Z,6.13
2023-02-12T09:22:49.173Z,6.21
2023-02-12T09:27:52.667Z,6.29
2023-02-12T09:32:57.248Z,6.43
2023-02-12T09:38:00.850Z,6.56
2023-02-12T09:43:11.735Z,6.62
2023-02-12T09:48:34.295Z,6.72
2023-02-12T09:53:42.102Z,6.92
2023-02-12T09:58:50.126Z,7.14
2023-02-12T10:03:54.082Z,7.28
2023-02-12T10:09:13.568Z,7.38
2023-02-12T10:14:44.035Z,7.49
2023-02-12T10:20:15.497Z,7.53
2023-02-12T10:25:54.481Z,7.54
2023-02-12T10:31:15.492Z,7.62
2023-02-12T10:36:37.171Z,7.71
2023-02-12T10:42:03.115Z,7.84
2023-02-12T10:47:25.705Z,7.89
2023-02-12T10:58:25.624Z,8.10
2023-02-12T11:03:34.797Z,8.18
2023-02-12T11:08:51.700Z,8.28
2023-02-12T11:14:27.042Z,8.37
2023-02-12T11:19:43.576Z,8.57
2023-02-12T11:25:11.857Z,8.86
2023-02-12T11:30:21.426Z,8.80
2023-02-12T11:35:40.681Z,8.99
2023-02-12T11:41:00.454Z,9.30
2023-02-12T11:46:24.384Z,9.31
2023-02-12T11:51:49.974Z,9.10
2023-02-12T11:57:01.207Z,8.94
2023-02-12T12:02:32.377Z,8.81
2023-02-12T12:07:48.856Z,8.74
2023-02-12T12:13:09.845Z,8.69
2023-02-12T12:18:49.188Z,8.75
2023-02-12T12:24:04.466Z,8.96
2023-02-12T12:29:31.901Z,9.61
2023-02-12T12:34:46.535Z,9.65
2023-02-12T12:40:32.166Z,9.72
2023-02-12T12:46:33.503Z,9.63
2023-02-12T12:52:06.303Z,9.55
2023-02-12T12:57:24.884Z,9.52
2023-02-12T13:03:11.968Z,9.68
2023-02-12T13:08:58.478Z,9.85
2023-02-12T13:14:31.617Z,9.86
2023-02-12T13:19:59.006Z,11.27
2023-02-12T13:25:30.371Z,12.26
2023-02-12T13:36:21.738Z,11.25
2023-02-12T13:41:43.384Z,10.63
2023-02-12T13:47:10.868Z,10.25
2023-02-12T13:52:30.712Z,9.97
2023-02-12T13:57:44.089Z,9.66
2023-02-12T14:02:56.005Z,9.44
2023-02-12T14:08:35.064Z,9.28
2023-02-12T14:14:23.109Z,9.12
2023-02-12T14:32:55.001Z,8.57
2023-02-12T14:39:13.004Z,8.53
2023-02-12T14:44:50.107Z,8.46
2023-02-12T14:50:02.681Z,8.43
2023-02-12T14:55:25.075Z,8.34
2023-02-12T15:00:35.750Z,8.26
2023-02-12T15:06:05.761Z,8.17
2023-02-12T15:11:41.558Z,8.11
2023-02-12T15:17:06.037Z,8.07
2023-02-12T15:22:24.437Z,8.01
2023-02-12T15:33:17.941Z,7.94
2023-02-12T15:38:37.271Z,7.86
2023-02-12T15:43:46.687Z,7.82
2023-02-12T15:49:01.026Z,7.77
2023-02-12T15:54:28.632Z,7.69
2023-02-12T16:05:40.035Z,7.58
2023-02-12T16:10:57.157Z,7.55
2023-02-12T16:16:26.923Z,7.49
2023-02-12T16:21:55.125Z,7.40
2023-02-12T16:27:20.646Z,7.33
2023-02-12T17:27:21.256Z,6.63
2023-02-12T17:59:18.372Z,6.52
2023-02-12T18:04:44.008Z,6.50
2023-02-12T18:10:05.668Z,6.46
2023-02-12T18:15:13.368Z,6.42
2023-02-12T18:27:05.489Z,6.36
2023-02-12T18:38:40.570Z,6.30
2023-02-12T18:44:57.652Z,6.29
2023-02-12T19:03:49.315Z,6.21
2023-02-12T19:09:33.050Z,6.19
2023-02-12T19:15:14.371Z,6.19
2023-02-12T19:34:06.624Z,6.14
2023-02-12T19:39:48.320Z,6.12
2023-02-12T19:46:13.034Z,6.10
2023-02-12T19:51:42.208Z,6.08
2023-02-12T19:57:40.860Z,6.07
2023-02-12T20:02:54.407Z,6.05
2023-02-12T20:22:41.005Z,5.94
2023-02-12T20:33:58.214Z,5.78
2023-02-12T20:39:40.433Z,5.70
2023-02-12T20:50:54.792Z,5.55
2023-02-12T20:56:25.036Z,5.48
2023-02-12T21:01:52.178Z,5.44
2023-02-12T21:07:02.448Z,5.39
2023-02-12T21:12:31.002Z,5.36
2023-02-12T21:17:42.700Z,5.36
2023-02-12T21:23:15.870Z,5.36
2023-02-12T21:35:38.326Z,5.33
2023-02-12T21:40:59.595Z,5.33
2023-02-12T21:46:17.168Z,5.33
2023-02-12T21:51:51.778Z,5.33
2023-02-12T21:57:20.121Z,5.34
2023-02-12T22:02:37.155Z,5.33
2023-02-12T22:08:03.701Z,5.30
2023-02-12T22:13:26.131Z,5.27
2023-02-12T22:18:42.269Z,5.23
2023-02-12T22:25:01.136Z,5.19
2023-02-12T22:31:41.641Z,5.16
2023-02-12T22:37:11.764Z,5.14
2023-02-12T22:42:42.350Z,5.13
2023-02-12T22:48:29.149Z,5.11
2023-02-12T22:54:00.291Z,5.07
2023-02-12T22:59:30.650Z,5.06
2023-02-12T23:04:40.656Z,5.04
2023-02-12T23:10:04.192Z,5.03
2023-02-12T23:15:39.104Z,5.02
2023-02-12T23:21:07.812Z,5.00
2023-02-12T23:33:23.410Z,4.98
2023-02-12T23:39:09.210Z,4.97
2023-02-12T23:44:41.772Z,4.95
2023-02-12T23:50:22.792Z,4.94
